FNT weather

Bishop International Airport
Flint, Michigan, United States

Public forecast

Using degrees Fahrenheit for public forecast. Weather courtesy of forecast.io.

Current aviation weather report (METAR) for Bishop International Airport

Retrieved 2019/10/17 14:53 UTC (14 minutes ago):

KFNT 171453Z 32012G20KT 10SM BKN023 09/03 A2991 RMK AO2 SLP132 T00890028 51010

Aviation forecast (TAF) for Bishop International Airport

Retrieved 2019/10/17 12:22 UTC (3 hours ago):

TAF KFNT 171120Z 1712/1812 31011G20KT P6SM SCT025 BKN035 TEMPO 1712/1716 SCT035 FM171600 33014G22KT P6SM BKN045 FM172300 33008KT P6SM BKN040 FM180400 31004KT P6SM SKC